Time;durP1;ratioP1;P1;durP2;ratioP2;P2;SDS_P1;SDS_P2;PMS_P1;PMS_P2;Temp;Humidity;BMP_temperature;BMP_pressure;BME280_temperature;BME280_humidity;BME280_pressure;Samples;Min_cycle;Max_cycle;Signal;HPM_P1;HPM_P2
2022/07/25 00:02:35;;;;;;;14.07;10.95;;;;;;;17.71;94.91;100917.50;10365753;28;20061;-75
2022/07/25 00:07:36;;;;;;;13.80;10.88;;;;;;;17.64;94.70;100922.63;10347917;28;20038;-75
2022/07/25 00:12:37;;;;;;;14.25;11.85;;;;;;;17.53;95.98;100917.13;10370972;28;20037;-75
2022/07/25 00:17:37;;;;;;;16.73;11.90;;;;;;;17.42;96.75;100907.25;10388511;28;20033;-76
2022/07/25 00:22:38;;;;;;;16.95;12.43;;;;;;;17.30;97.28;100907.88;10370137;28;20041;-76
2022/07/25 00:27:38;;;;;;;14.77;11.15;;;;;;;17.25;98.46;100901.59;10370990;28;20021;-76
2022/07/25 00:32:39;;;;;;;14.68;11.38;;;;;;;17.25;98.60;100892.78;10384670;28;20033;-76
2022/07/25 00:37:39;;;;;;;17.48;12.25;;;;;;;17.25;98.69;100879.56;10372152;28;20412;-75
2022/07/25 00:42:40;;;;;;;16.40;11.05;;;;;;;17.19;98.56;100877.66;10373737;28;20145;-75
2022/07/25 00:47:41;;;;;;;17.25;11.15;;;;;;;17.22;98.26;100864.50;10387126;28;20117;-75
2022/07/25 00:52:41;;;;;;;12.38;10.55;;;;;;;17.19;98.51;100866.19;10362953;28;20073;-76
2022/07/25 00:57:42;;;;;;;12.90;11.00;;;;;;;17.09;97.86;100866.00;10362205;28;20128;-75
2022/07/25 01:02:42;;;;;;;15.30;11.80;;;;;;;17.05;98.17;100857.97;10370248;28;20069;-76
2022/07/25 01:07:43;;;;;;;14.18;10.27;;;;;;;16.95;98.18;100855.09;10354048;28;20369;-75
2022/07/25 01:12:47;;;;;;;19.27;11.70;;;;;;;16.88;98.45;100847.91;10354008;28;20137;-75
2022/07/25 01:17:48;;;;;;;15.75;12.48;;;;;;;16.84;98.99;100846.94;10368274;28;20060;-75
2022/07/25 01:22:49;;;;;;;14.80;12.20;;;;;;;16.79;99.51;100850.34;10378692;28;20525;-75
2022/07/25 01:27:50;;;;;;;15.98;11.65;;;;;;;16.78;99.64;100843.28;10329740;28;20053;-75
2022/07/25 01:32:50;;;;;;;16.48;13.30;;;;;;;16.69;99.78;100836.94;10352194;28;20512;-75
2022/07/25 01:37:51;;;;;;;21.58;13.15;;;;;;;16.66;100.00;100841.25;10384996;28;20171;-76
2022/07/25 01:42:51;;;;;;;17.75;12.02;;;;;;;16.59;100.00;100827.00;10359975;28;20048;-75
2022/07/25 01:47:52;;;;;;;21.95;12.18;;;;;;;16.58;100.00;100818.22;10361598;28;20125;-75
2022/07/25 01:52:52;;;;;;;13.73;11.77;;;;;;;16.58;100.00;100818.22;10360059;28;20041;-75
2022/07/25 01:57:53;;;;;;;14.13;11.55;;;;;;;16.53;100.00;100809.28;10343229;28;20044;-75
2022/07/25 02:03:28;;;;;;;15.30;10.85;;;;;;;16.48;100.00;100803.00;10324829;28;20071;-75
2022/07/25 02:08:14;;;;;;;17.02;11.35;;;;;;;16.45;100.00;100800.31;10346482;28;20054;-75
2022/07/25 02:13:14;;;;;;;14.20;11.48;;;;;;;16.43;100.00;100802.91;10368728;28;20136;-75
2022/07/25 02:18:15;;;;;;;16.48;10.57;;;;;;;16.39;100.00;100790.47;10381664;28;20110;-75
2022/07/25 02:23:15;;;;;;;13.90;10.20;;;;;;;16.34;100.00;100792.13;10352800;28;20541;-76
2022/07/25 02:28:16;;;;;;;16.67;12.45;;;;;;;16.30;100.00;100782.34;10383475;28;20091;-75
2022/07/25 02:33:16;;;;;;;15.65;10.95;;;;;;;16.25;100.00;100771.69;10340985;28;20125;-75
2022/07/25 02:38:20;;;;;;;14.95;12.25;;;;;;;16.20;100.00;100762.78;10327607;28;20041;-75
2022/07/25 02:43:20;;;;;;;13.98;10.63;;;;;;;16.21;100.00;100763.66;10352060;28;20116;-75
2022/07/25 02:48:21;;;;;;;14.27;11.45;;;;;;;16.17;100.00;100753.88;10364371;28;20048;-76
2022/07/25 02:53:21;;;;;;;19.00;11.55;;;;;;;16.17;100.00;100754.78;10367877;28;20061;-76
2022/07/25 02:58:22;;;;;;;21.25;11.43;;;;;;;16.10;100.00;100758.13;10374378;28;20042;-76
2022/07/25 03:03:22;;;;;;;13.10;10.40;;;;;;;16.09;100.00;100735.22;10338999;28;20034;-77
2022/07/25 03:08:23;;;;;;;14.88;10.55;;;;;;;16.04;100.00;100736.88;10329846;28;20494;-77
2022/07/25 03:13:24;;;;;;;15.77;11.23;;;;;;;16.04;100.00;100732.47;10377734;28;20049;-77
2022/07/25 03:18:25;;;;;;;16.20;9.80;;;;;;;16.06;100.00;100733.41;10388169;28;20037;-76
2022/07/25 03:23:27;;;;;;;13.07;10.70;;;;;;;15.98;100.00;100732.34;10388393;28;20116;-77
2022/07/25 03:28:27;;;;;;;15.60;11.65;;;;;;;15.92;100.00;100722.53;10389083;28;20481;-77
2022/07/25 03:33:28;;;;;;;13.52;10.55;;;;;;;15.88;100.00;100728.59;10378606;28;20034;-79
2022/07/25 03:38:28;;;;;;;14.40;10.27;;;;;;;15.87;100.00;100718.91;10337972;28;20378;-76
2022/07/25 03:43:30;;;;;;;23.25;18.17;;;;;;;15.89;100.00;100711.00;10390490;28;20498;-78
2022/07/25 03:48:30;;;;;;;14.13;10.67;;;;;;;15.96;100.00;100707.66;10368581;28;20087;-81
2022/07/25 03:53:31;;;;;;;14.75;10.82;;;;;;;16.02;100.00;100706.91;10384131;28;20042;-79
2022/07/25 03:58:32;;;;;;;14.80;10.38;;;;;;;16.05;100.00;100699.94;10387617;28;20050;-79
2022/07/25 04:03:32;;;;;;;18.85;11.32;;;;;;;16.05;100.00;100689.38;10403455;28;20372;-79
2022/07/25 04:08:33;;;;;;;24.77;10.60;;;;;;;16.12;100.00;100688.66;10364896;28;20398;-76
2022/07/25 04:13:33;;;;;;;14.73;10.68;;;;;;;16.16;100.00;100687.00;10379874;28;20055;-78
2022/07/25 04:18:34;;;;;;;18.42;10.20;;;;;;;16.22;100.00;100691.50;10387174;28;20034;-77
2022/07/25 04:23:35;;;;;;;11.55;8.75;;;;;;;16.27;100.00;100687.22;10382679;28;20059;-78
2022/07/25 04:28:35;;;;;;;17.00;10.68;;;;;;;16.35;99.90;100675.06;10352450;28;20038;-79
2022/07/25 04:33:38;;;;;;;12.90;9.35;;;;;;;16.39;99.78;100668.97;10376591;28;20072;-78
2022/07/25 04:38:39;;;;;;;12.82;9.65;;;;;;;16.43;99.23;100672.59;10341687;28;20046;-77
2022/07/25 04:43:39;;;;;;;13.10;10.00;;;;;;;16.54;98.78;100668.41;10363786;28;20043;-80
2022/07/25 04:48:40;;;;;;;12.77;8.20;;;;;;;16.71;98.76;100666.09;10368931;28;20072;-79
2022/07/25 04:53:40;;;;;;;12.65;9.98;;;;;;;16.87;98.21;100663.75;10402964;28;20037;-78
2022/07/25 04:58:41;;;;;;;12.25;9.23;;;;;;;17.03;97.24;100655.25;10404285;28;20049;-79
2022/07/25 05:03:42;;;;;;;10.85;7.60;;;;;;;17.15;96.06;100651.94;10385530;28;20041;-80
2022/07/25 05:08:43;;;;;;;11.53;9.63;;;;;;;17.37;95.50;100639.09;10362056;28;20084;-80
2022/07/25 05:13:45;;;;;;;10.35;7.97;;;;;;;17.65;93.97;100641.25;10344068;28;20096;-81
2022/07/25 05:18:46;;;;;;;13.95;7.57;;;;;;;18.00;92.21;100641.81;10385479;28;20064;-80
2022/07/25 05:23:47;;;;;;;11.05;7.72;;;;;;;18.47;91.55;100635.31;10382257;28;20079;-77
2022/07/25 05:28:48;;;;;;;10.23;7.05;;;;;;;19.46;88.46;100630.06;10374839;28;20034;-77
2022/07/25 05:33:48;;;;;;;10.70;6.90;;;;;;;20.95;81.74;100643.13;10362580;28;20057;-77
2022/07/25 05:38:49;;;;;;;8.87;6.33;;;;;;;21.94;76.44;100628.91;10399950;28;20044;-77
2022/07/25 05:43:49;;;;;;;8.37;6.53;;;;;;;22.29;74.84;100647.41;10385201;28;20068;-78
2022/07/25 05:48:50;;;;;;;7.23;6.43;;;;;;;22.27;70.02;100678.50;10342932;28;20531;-78
2022/07/25 05:53:50;;;;;;;9.20;6.77;;;;;;;21.91;67.89;100661.75;10344288;28;20033;-79
2022/07/25 05:58:51;;;;;;;11.43;8.80;;;;;;;21.58;69.94;100663.53;10377366;28;20128;-79
2022/07/25 06:03:51;;;;;;;15.57;8.60;;;;;;;21.68;70.00;100654.69;10368465;28;20045;-79
2022/07/25 06:08:52;;;;;;;9.30;7.03;;;;;;;21.71;72.59;100648.47;10334396;28;20041;-79
2022/07/25 06:13:53;;;;;;;10.17;7.87;;;;;;;21.87;72.67;100659.09;10327473;28;20097;-79
2022/07/25 06:18:53;;;;;;;9.10;6.47;;;;;;;22.10;71.02;100649.25;10326943;28;20116;-78
2022/07/25 06:23:54;;;;;;;10.17;6.87;;;;;;;22.92;70.22;100653.31;10327162;28;20113;-79
2022/07/25 06:28:54;;;;;;;9.33;6.87;;;;;;;23.10;67.96;100657.63;10343517;28;20539;-79
2022/07/25 06:33:55;;;;;;;10.40;7.00;;;;;;;22.86;69.51;100646.22;10325401;28;20382;-78
2022/07/25 06:38:55;;;;;;;12.90;7.80;;;;;;;22.84;70.86;100661.34;10359753;28;20038;-78
2022/07/25 06:43:56;;;;;;;15.13;7.97;;;;;;;22.78;71.23;100661.41;10311152;28;20393;-79
2022/07/25 06:48:56;;;;;;;11.10;7.60;;;;;;;22.67;68.71;100657.91;10372757;28;20099;-78
2022/07/25 06:53:57;;;;;;;10.23;7.03;;;;;;;22.85;68.72;100662.25;10366344;28;20129;-78
2022/07/25 06:58:58;;;;;;;10.70;6.33;;;;;;;22.88;65.13;100673.78;10383904;28;20526;-78
2022/07/25 07:03:58;;;;;;;30.17;7.83;;;;;;;22.74;62.25;100670.31;10382615;28;20042;-79
2022/07/25 07:08:59;;;;;;;7.43;5.97;;;;;;;22.61;63.05;100661.50;10382864;28;20137;-78
2022/07/25 07:14:01;;;;;;;13.67;7.27;;;;;;;22.67;62.65;100666.81;10382233;28;20485;-78
2022/07/25 07:19:02;;;;;;;9.20;6.45;;;;;;;22.65;63.84;100673.03;10365308;28;20061;-78
2022/07/25 07:24:02;;;;;;;8.50;6.40;;;;;;;22.49;63.56;100669.56;10382531;28;20124;-77
2022/07/25 07:29:03;;;;;;;10.53;7.73;;;;;;;22.60;62.80;100670.41;10399048;28;20099;-78
2022/07/25 07:34:04;;;;;;;11.83;5.03;;;;;;;22.52;61.40;100678.44;10366589;28;20041;-78
2022/07/25 07:39:04;;;;;;;6.73;4.53;;;;;;;22.61;61.64;100689.94;10381898;28;20041;-80
2022/07/25 07:44:05;;;;;;;8.50;5.43;;;;;;;22.61;61.61;100687.28;10385478;28;20393;-78
2022/07/25 07:49:05;;;;;;;7.33;4.80;;;;;;;22.65;59.67;100692.59;10389137;28;20061;-78
2022/07/25 07:59:25;;;;;;;6.57;4.85;;;;;;;23.29;58.82;100692.22;10406184;28;20095;-78
2022/07/25 08:04:25;;;;;;;5.97;3.63;;;;;;;23.52;56.73;100693.81;10372089;28;20452;-79
2022/07/25 08:09:26;;;;;;;4.63;3.87;;;;;;;23.82;57.25;100691.75;10388453;28;20152;-78
2022/07/25 08:14:26;;;;;;;4.57;3.63;;;;;;;25.61;52.92;100688.50;10388880;28;20064;-78
2022/07/25 08:19:27;;;;;;;6.33;3.63;;;;;;;27.93;48.12;100678.88;10388259;28;20092;-79
2022/07/25 08:24:27;;;;;;;7.83;3.50;;;;;;;29.15;41.90;100682.47;10370081;28;20507;-79
2022/07/25 08:29:28;;;;;;;6.82;4.60;;;;;;;30.54;39.45;100680.28;10372664;28;20138;-79
2022/07/25 08:34:28;;;;;;;;;;;;;;;30.78;38.73;100691.97;10365791;28;20034;-76
2022/07/25 08:39:29;;;;;;;4.20;3.33;;;;;;;29.64;40.51;100686.25;10353720;28;19965;-77
2022/07/25 08:44:30;;;;;;;8.10;4.60;;;;;;;28.92;42.91;100693.97;10364554;28;20038;-77
2022/07/25 08:49:31;;;;;;;7.28;3.63;;;;;;;29.10;42.64;100691.59;10330474;28;20087;-77
2022/07/25 08:54:31;;;;;;;5.35;3.38;;;;;;;30.55;38.68;100703.66;10362085;28;20042;-77
2022/07/25 08:59:32;;;;;;;8.10;3.25;;;;;;;30.14;39.90;100688.97;10329517;28;20116;-78
2022/07/25 09:04:34;;;;;;;7.45;2.72;;;;;;;30.14;39.90;100693.50;10346432;28;20119;-77
2022/07/25 09:09:37;;;;;;;6.13;2.92;;;;;;;29.70;41.64;100696.81;10330102;28;20426;-78
2022/07/25 09:14:41;;;;;;;5.65;2.35;;;;;;;29.71;40.89;100702.16;10332202;28;20033;-77
2022/07/25 09:19:50;;;;;;;4.65;2.78;;;;;;;29.18;41.21;100708.41;10329411;28;20034;-77
2022/07/25 09:24:51;;;;;;;7.72;3.78;;;;;;;30.26;40.62;100709.22;10329253;28;20038;-78
2022/07/25 09:29:51;;;;;;;8.77;4.50;;;;;;;31.41;38.63;100711.97;10361668;28;20062;-78
2022/07/25 09:34:52;;;;;;;;;;;;;;;32.82;37.15;100711.13;10312272;28;20030;-77
2022/07/25 09:39:52;;;;;;;6.03;3.73;;;;;;;32.43;36.06;100710.25;10362386;28;19924;-77
2022/07/25 09:44:56;;;;;;;;;;;;;;;30.85;39.46;100728.63;10361327;28;20069;-77
2022/07/25 09:49:57;;;;;;;7.65;2.47;;;;;;;29.68;43.70;100739.13;10343619;28;20093;-77
2022/07/25 09:54:59;;;;;;;5.80;2.10;;;;;;;31.71;38.96;100739.56;10343099;28;20148;-77
2022/07/25 10:00:00;;;;;;;6.70;2.80;;;;;;;32.14;36.93;100738.63;10338700;28;20044;-77
2022/07/25 10:05:03;;;;;;;;;;;;;;;33.04;35.83;100731.81;10367660;28;20041;-77
2022/07/25 10:10:04;;;;;;;5.78;3.67;;;;;;;32.49;35.96;100734.31;10387050;28;19922;-77
2022/07/25 10:15:09;;;;;;;4.78;2.83;;;;;;;32.67;36.11;100734.41;10373334;28;20064;-77
2022/07/25 10:20:10;;;;;;;6.93;2.78;;;;;;;32.93;35.53;100725.06;10350532;28;20033;-78
2022/07/25 10:25:14;;;;;;;;;;;;;;;33.01;35.76;100729.25;10383649;28;20037;-77
2022/07/25 10:30:24;;;;;;;10.48;3.40;;;;;;;32.46;38.31;100730.91;10366088;28;19923;-77
2022/07/25 10:35:26;;;;;;;10.00;3.25;;;;;;;31.68;39.45;100731.56;10367180;28;20037;-77
2022/07/25 10:40:28;;;;;;;8.15;2.53;;;;;;;32.80;40.09;100730.16;10374512;28;20449;-77
2022/07/25 10:45:41;;;;;;;7.28;3.25;;;;;;;33.32;35.35;100731.28;10354496;28;20044;-79
2022/07/25 10:50:57;;;;;;;9.43;2.97;;;;;;;31.58;38.07;100738.31;10350734;28;20128;-79
2022/07/25 10:56:09;;;;;;;4.20;1.77;;;;;;;29.33;43.23;100743.84;10380785;28;20042;-79
2022/07/25 11:01:09;;;;;;;;;;;;;;;28.02;46.35;100747.66;10380513;28;20042;-77
2022/07/25 11:06:11;;;;;;;5.57;1.83;;;;;;;31.18;42.85;100746.25;10390551;28;19925;-76
2022/07/25 11:11:12;;;;;;;4.47;1.80;;;;;;;30.90;39.57;100741.94;10350779;28;20394;-77
2022/07/25 11:16:13;;;;;;;6.10;2.05;;;;;;;29.99;41.83;100749.78;10340622;28;20034;-75
2022/07/25 11:21:13;;;;;;;5.57;1.93;;;;;;;29.32;44.59;100753.78;10352411;28;20081;-77
2022/07/25 11:26:14;;;;;;;7.00;3.17;;;;;;;28.80;45.93;100751.78;10387532;28;20038;-76
2022/07/25 11:31:15;;;;;;;19.87;5.10;;;;;;;29.20;42.16;100770.34;10372375;28;20029;-77
2022/07/25 11:36:15;;;;;;;;;;;;;;;30.63;40.75;100766.38;10372200;28;20029;-77
2022/07/25 11:41:27;;;;;;;6.00;2.43;;;;;;;31.10;38.55;100769.97;10405977;28;19921;-77
2022/07/25 11:46:27;;;;;;;;;;;;;;;31.12;38.07;100782.50;10391335;28;20104;-77
2022/07/25 11:51:37;;;;;;;3.93;2.43;;;;;;;29.78;40.93;100772.94;10388797;28;19999;-77
2022/07/25 11:56:38;;;;;;;6.07;2.50;;;;;;;28.70;42.56;100788.84;10373152;28;20084;-77
2022/07/25 12:01:40;;;;;;;6.18;3.17;;;;;;;29.43;41.50;100791.16;10385225;28;20037;-77
2022/07/25 12:06:42;;;;;;;7.63;3.08;;;;;;;29.05;42.16;100787.84;10389460;28;20386;-77
2022/07/25 12:11:42;;;;;;;14.13;2.42;;;;;;;30.00;39.52;100788.41;10372158;28;20200;-77
2022/07/25 12:16:43;;;;;;;6.30;2.55;;;;;;;30.52;38.63;100782.06;10347856;28;20486;-76
2022/07/25 12:21:44;;;;;;;4.95;2.00;;;;;;;31.85;37.34;100784.97;10359903;28;20042;-77
2022/07/25 12:26:44;;;;;;;7.20;2.60;;;;;;;29.96;39.47;100790.31;10369234;28;20042;-76
2022/07/25 12:31:45;;;;;;;5.53;2.63;;;;;;;29.04;41.94;100775.31;10392700;28;20065;-75
2022/07/25 12:36:45;;;;;;;8.33;1.97;;;;;;;30.43;40.63;100781.47;10404746;28;20116;-75
2022/07/25 12:41:46;;;;;;;4.87;2.97;;;;;;;29.39;41.14;100787.72;10388007;28;20239;-74
2022/07/25 12:46:46;;;;;;;4.17;2.40;;;;;;;29.37;41.17;100794.03;10404999;28;20060;-74
2022/07/25 12:51:47;;;;;;;6.77;2.70;;;;;;;28.51;43.10;100791.19;10386392;28;20135;-75
2022/07/25 12:56:48;;;;;;;6.83;2.50;;;;;;;27.47;47.14;100801.88;10387457;28;20111;-75
2022/07/25 13:01:48;;;;;;;6.20;2.83;;;;;;;27.30;45.32;100796.03;10403649;28;20040;-74
2022/07/25 13:06:49;;;;;;;9.93;3.40;;;;;;;27.31;47.53;100793.31;10381716;28;20496;-76
2022/07/25 13:11:49;;;;;;;4.13;2.80;;;;;;;27.18;47.17;100808.81;10376903;28;20041;-76
2022/07/25 13:16:50;;;;;;;7.10;2.67;;;;;;;26.75;46.17;100821.34;10357539;28;20065;-76
2022/07/25 13:21:50;;;;;;;11.17;3.03;;;;;;;26.40;47.70;100825.63;10368231;28;20137;-76
2022/07/25 13:26:51;;;;;;;7.73;2.63;;;;;;;25.74;49.33;100836.53;10358718;28;20045;-75
2022/07/25 13:31:52;;;;;;;5.23;2.97;;;;;;;25.71;49.90;100835.72;10344475;28;20044;-76
2022/07/25 13:36:52;;;;;;;6.63;2.10;;;;;;;25.95;49.62;100846.03;10358421;28;20069;-74
2022/07/25 13:41:53;;;;;;;10.27;3.20;;;;;;;25.53;50.82;100869.03;10360295;28;20041;-74
2022/07/25 13:46:53;;;;;;;9.57;3.47;;;;;;;24.47;53.73;100867.56;10402037;28;20076;-75
2022/07/25 13:51:54;;;;;;;11.17;3.87;;;;;;;24.09;55.51;100874.16;10370086;28;20040;-76
2022/07/25 13:56:55;;;;;;;9.10;3.20;;;;;;;24.53;54.40;100883.56;10385975;28;20041;-76
2022/07/25 14:01:55;;;;;;;10.60;3.83;;;;;;;24.94;54.22;100876.03;10343210;28;20053;-77
2022/07/25 14:06:56;;;;;;;6.83;2.87;;;;;;;25.54;51.88;100889.53;10341995;28;20068;-76
2022/07/25 14:11:56;;;;;;;6.70;3.53;;;;;;;25.67;51.04;100883.09;10343708;28;20038;-74
2022/07/25 14:16:57;;;;;;;8.33;2.60;;;;;;;26.77;48.33;100870.53;10352979;28;20087;-74
2022/07/25 14:21:57;;;;;;;7.80;3.07;;;;;;;25.90;50.31;100874.72;10400971;28;20465;-73
2022/07/25 14:26:58;;;;;;;7.30;3.93;;;;;;;26.18;49.62;100873.38;10383231;28;20426;-73
2022/07/25 14:31:58;;;;;;;5.30;2.67;;;;;;;27.01;47.23;100875.44;10397691;28;20041;-73
2022/07/25 14:36:59;;;;;;;4.73;1.97;;;;;;;26.94;45.56;100870.19;10398208;28;20037;-75
2022/07/25 14:42:00;;;;;;;4.97;1.87;;;;;;;26.70;44.97;100876.03;10315757;28;20099;-74
2022/07/25 14:47:00;;;;;;;7.83;2.33;;;;;;;25.35;48.19;100881.72;10366696;28;20083;-74
2022/07/25 14:52:01;;;;;;;5.73;2.57;;;;;;;25.32;48.28;100866.59;10366620;28;20065;-74
2022/07/25 14:57:02;;;;;;;4.37;2.13;;;;;;;25.28;48.94;100861.28;10350461;28;20116;-75
2022/07/25 15:02:02;;;;;;;5.90;1.90;;;;;;;25.34;47.66;100870.16;10350426;28;20053;-74
2022/07/25 15:07:03;;;;;;;8.50;2.07;;;;;;;25.38;48.03;100870.97;10367840;28;20042;-74
2022/07/25 15:12:04;;;;;;;6.70;2.30;;;;;;;26.28;46.01;100861.59;10350658;28;20054;-73
2022/07/25 15:17:04;;;;;;;6.87;1.67;;;;;;;26.16;44.70;100862.69;10367539;28;20461;-74
2022/07/25 15:22:06;;;;;;;3.97;1.85;;;;;;;25.90;46.49;100872.03;10361197;28;20104;-74
2022/07/25 15:27:08;;;;;;;8.00;3.23;;;;;;;26.08;45.21;100873.50;10349275;28;20057;-74
2022/07/25 15:32:08;;;;;;;;;;;;;;;25.65;44.89;100868.84;10359939;28;20582;-74
2022/07/25 15:37:10;;;;;;;13.02;4.07;;;;;;;25.04;46.82;100866.06;10365342;28;19944;-74
2022/07/25 15:42:11;;;;;;;7.15;3.88;;;;;;;24.93;46.99;100885.81;10378480;28;20046;-74
2022/07/25 15:47:11;;;;;;;11.63;7.43;;;;;;;25.07;47.79;100883.00;10348365;28;20049;-75
2022/07/25 15:52:12;;;;;;;7.97;4.53;;;;;;;24.73;47.18;100893.19;10350063;28;20058;-75
2022/07/25 15:57:12;;;;;;;10.43;3.63;;;;;;;24.42;47.79;100872.06;10377844;28;20462;-75
2022/07/25 16:02:13;;;;;;;7.23;3.40;;;;;;;24.32;46.22;100892.69;10400058;28;20385;-76
2022/07/25 16:07:13;;;;;;;8.20;2.60;;;;;;;24.45;47.05;100886.31;10382717;28;20093;-75
2022/07/25 16:12:14;;;;;;;5.03;2.40;;;;;;;24.73;45.50;100879.81;10364521;28;20168;-75
2022/07/25 16:17:15;;;;;;;4.90;2.30;;;;;;;24.93;43.82;100877.78;10376304;28;20045;-77
2022/07/25 16:22:15;;;;;;;10.33;1.90;;;;;;;25.13;43.46;100878.47;10358741;28;20076;-76
2022/07/25 16:27:16;;;;;;;4.97;2.60;;;;;;;24.86;44.60;100873.41;10359740;28;20054;-75
2022/07/25 16:32:17;;;;;;;5.40;2.73;;;;;;;25.08;44.53;100867.81;10367924;28;20055;-76
2022/07/25 16:37:18;;;;;;;7.35;3.05;;;;;;;25.40;44.13;100887.91;10404299;28;20136;-75
2022/07/25 16:42:19;;;;;;;11.20;3.58;;;;;;;24.69;43.64;100897.69;10340873;28;20042;-76
2022/07/25 16:47:19;;;;;;;5.83;2.83;;;;;;;24.05;45.22;100892.03;10329890;28;20030;-75
2022/07/25 16:52:21;;;;;;;6.77;3.43;;;;;;;24.21;43.97;100891.91;10370591;28;20400;-75
2022/07/25 16:57:22;;;;;;;;;;;;;;;24.19;44.21;100910.59;10379080;28;20161;-75
2022/07/25 17:02:22;;;;;;;3.95;1.67;;;;;;;23.99;43.75;100900.06;10355253;28;20031;-74
2022/07/25 17:07:23;;;;;;;5.93;1.40;;;;;;;23.84;44.09;100912.63;10383089;28;20061;-74
2022/07/25 17:12:24;;;;;;;7.83;2.03;;;;;;;23.65;44.87;100913.66;10384761;28;20029;-75
2022/07/25 17:17:24;;;;;;;9.00;1.63;;;;;;;23.38;44.84;100902.22;10380030;28;20069;-76
2022/07/25 17:22:25;;;;;;;10.07;1.77;;;;;;;23.23;44.98;100927.16;10344263;28;20061;-75
2022/07/25 17:27:25;;;;;;;3.93;1.60;;;;;;;22.99;45.92;100927.25;10328325;28;20377;-76
2022/07/25 17:32:26;;;;;;;4.50;1.40;;;;;;;22.83;45.49;100929.03;10344674;28;20123;-77
2022/07/25 17:37:26;;;;;;;3.63;0.87;;;;;;;22.73;45.21;100937.97;10344171;28;20062;-77
2022/07/25 17:42:27;;;;;;;1.03;0.70;;;;;;;22.48;45.64;100945.13;10361955;28;20030;-76
2022/07/25 17:47:27;;;;;;;2.80;1.10;;;;;;;22.40;45.63;100947.72;10361040;28;20397;-76
2022/07/25 17:52:28;;;;;;;4.43;2.30;;;;;;;22.11;45.77;100956.59;10328575;28;20560;-76
2022/07/25 17:57:28;;;;;;;3.30;1.55;;;;;;;22.03;45.94;100963.69;10343290;28;20120;-76
2022/07/25 18:02:29;;;;;;;5.40;1.80;;;;;;;21.88;46.45;100946.78;10360809;28;20065;-76
2022/07/25 18:07:31;;;;;;;5.70;1.02;;;;;;;21.69;46.58;100970.72;10360809;28;20449;-75
2022/07/25 18:12:31;;;;;;;2.57;1.20;;;;;;;21.62;46.08;100968.88;10344528;28;20124;-76
2022/07/25 18:17:32;;;;;;;3.43;1.30;;;;;;;21.62;46.18;100968.88;10326619;28;20110;-76
2022/07/25 18:22:32;;;;;;;4.17;1.00;;;;;;;21.46;46.93;100972.38;10342542;28;20443;-75
2022/07/25 18:27:33;;;;;;;2.22;0.90;;;;;;;21.45;47.05;100976.81;10360394;28;20065;-76
2022/07/25 18:32:34;;;;;;;7.43;0.88;;;;;;;21.33;48.18;100974.09;10315841;28;20157;-76
2022/07/25 18:37:35;;;;;;;3.03;1.20;;;;;;;21.26;47.96;100971.41;10359309;28;20041;-75
2022/07/25 18:42:36;;;;;;;17.63;7.85;;;;;;;21.31;47.92;100976.75;10358915;28;20554;-75
2022/07/25 18:47:36;;;;;;;6.00;3.10;;;;;;;21.30;48.37;100974.97;10366171;28;20038;-75
2022/07/25 18:52:37;;;;;;;6.13;3.47;;;;;;;21.28;48.40;100979.38;10381993;28;20132;-75
2022/07/25 18:57:38;;;;;;;5.43;3.17;;;;;;;21.25;48.26;100987.34;10383054;28;20052;-75
2022/07/25 19:02:38;;;;;;;3.40;1.30;;;;;;;21.17;48.39;100992.66;10400713;28;20425;-76
2022/07/25 19:07:39;;;;;;;4.03;1.25;;;;;;;21.18;49.15;100996.19;10382218;28;20377;-75
2022/07/25 19:12:40;;;;;;;2.38;0.70;;;;;;;21.03;49.58;100992.56;10381760;28;20040;-75
2022/07/25 19:17:40;;;;;;;6.40;1.25;;;;;;;20.95;50.09;101004.91;10381216;28;20116;-78
2022/07/25 19:22:41;;;;;;;13.35;3.53;;;;;;;20.81;51.24;101005.69;10327905;28;20129;-75
2022/07/25 19:27:41;;;;;;;2.78;1.00;;;;;;;20.67;51.56;101005.59;10365356;28;20409;-75
2022/07/25 19:32:42;;;;;;;5.53;1.85;;;;;;;20.57;52.19;101014.34;10360449;28;20124;-75
2022/07/25 19:37:42;;;;;;;2.38;0.95;;;;;;;20.51;52.52;101019.63;10381152;28;20041;-75
2022/07/25 19:42:43;;;;;;;7.45;1.20;;;;;;;20.42;53.05;101014.22;10387679;28;20049;-76
2022/07/25 19:47:43;;;;;;;5.18;2.00;;;;;;;20.29;53.50;101026.47;10402474;28;20072;-75
2022/07/25 19:52:44;;;;;;;2.72;0.90;;;;;;;20.24;53.70;101037.94;10387521;28;20397;-75
2022/07/25 19:57:44;;;;;;;3.78;1.10;;;;;;;20.30;52.97;101037.16;10387521;28;20041;-74
2022/07/25 20:02:45;;;;;;;3.85;1.00;;;;;;;20.24;53.46;101045.06;10401591;28;20054;-75
2022/07/25 20:07:45;;;;;;;3.40;0.80;;;;;;;19.95;54.08;101041.19;10384267;28;20042;-73
2022/07/25 20:12:46;;;;;;;4.45;0.90;;;;;;;19.80;55.31;101044.53;10400963;28;20516;-74
2022/07/25 20:17:47;;;;;;;6.93;1.02;;;;;;;19.83;55.26;101051.63;10398957;28;20644;-75
2022/07/25 20:22:47;;;;;;;5.22;1.50;;;;;;;19.74;56.03;101059.47;10361636;28;20048;-74
2022/07/25 20:27:48;;;;;;;6.45;1.42;;;;;;;19.72;56.69;101058.56;10348304;28;20478;-74
2022/07/25 20:32:49;;;;;;;2.53;0.80;;;;;;;19.63;56.43;101059.34;10377267;28;20061;-74
2022/07/25 20:37:49;;;;;;;5.03;1.23;;;;;;;19.53;57.01;101058.31;10400875;28;20037;-74
2022/07/25 20:42:50;;;;;;;6.80;0.95;;;;;;;19.45;57.52;101060.88;10385296;28;20052;-75
2022/07/25 20:47:50;;;;;;;3.55;1.17;;;;;;;19.29;58.24;101066.84;10402762;28;20038;-74
2022/07/25 20:52:51;;;;;;;6.20;2.10;;;;;;;19.05;59.35;101068.25;10367371;28;20038;-74
2022/07/25 20:57:51;;;;;;;1.83;1.17;;;;;;;19.06;59.77;101070.03;10370616;28;20045;-73
2022/07/25 21:02:52;;;;;;;6.25;1.55;;;;;;;18.83;60.36;101078.47;10369380;28;20066;-74
2022/07/25 21:07:53;;;;;;;3.30;1.30;;;;;;;18.52;60.97;101079.66;10346231;28;20044;-74
2022/07/25 21:12:55;;;;;;;4.70;2.30;;;;;;;18.36;61.87;101092.63;10347036;28;20504;-74
2022/07/25 21:17:56;;;;;;;8.35;1.10;;;;;;;18.21;62.55;101103.84;10357049;28;20038;-74
2022/07/25 21:22:56;;;;;;;3.30;1.38;;;;;;;18.04;63.54;101109.69;10346928;28;20117;-74
2022/07/25 21:27:57;;;;;;;7.20;1.63;;;;;;;17.86;64.11;101111.91;10403311;28;20036;-73
2022/07/25 21:32:57;;;;;;;3.50;1.58;;;;;;;17.65;65.13;101115.88;10392187;28;20057;-74
2022/07/25 21:37:58;;;;;;;9.07;2.15;;;;;;;17.68;65.57;101107.09;10362880;28;20073;-73
2022/07/25 21:42:59;;;;;;;5.00;1.40;;;;;;;17.79;65.21;101107.34;10371070;28;20106;-74
2022/07/25 21:47:59;;;;;;;4.40;1.55;;;;;;;17.90;64.81;101125.22;10361654;28;20133;-74
2022/07/25 21:53:00;;;;;;;7.07;1.83;;;;;;;18.03;64.38;101128.16;10344396;28;20061;-73
2022/07/25 21:58:00;;;;;;;3.50;1.90;;;;;;;18.00;64.90;101129.03;10384868;28;20037;-74
2022/07/25 22:03:01;;;;;;;6.72;2.03;;;;;;;17.94;65.13;101123.56;10349981;28;20052;-75
2022/07/25 22:08:01;;;;;;;6.40;2.08;;;;;;;17.94;65.29;101133.25;10384855;28;20170;-74
2022/07/25 22:13:02;;;;;;;15.48;3.22;;;;;;;17.83;66.16;101139.19;10341011;28;20038;-74
2022/07/25 22:18:02;;;;;;;4.65;1.92;;;;;;;17.63;67.80;101132.56;10383504;28;20453;-74
2022/07/25 22:23:03;;;;;;;4.25;2.00;;;;;;;17.52;67.72;101143.78;10387727;28;20076;-74
2022/07/25 22:28:03;;;;;;;5.68;2.20;;;;;;;17.40;68.16;101138.22;10357413;28;20529;-73
2022/07/25 22:33:04;;;;;;;3.85;1.95;;;;;;;17.17;69.35;101147.38;10361848;28;20109;-74
2022/07/25 22:38:05;;;;;;;7.20;2.05;;;;;;;16.95;70.09;101153.81;10366816;28;20600;-74
2022/07/25 22:43:05;;;;;;;3.05;1.73;;;;;;;16.84;70.81;101147.38;10368334;28;20162;-74
2022/07/25 22:48:06;;;;;;;8.65;2.05;;;;;;;16.70;71.42;101152.28;10360686;28;20042;-75
2022/07/25 22:53:06;;;;;;;5.13;2.38;;;;;;;16.52;72.53;101150.03;10370923;28;20053;-74
2022/07/25 22:58:07;;;;;;;4.25;1.48;;;;;;;16.41;73.16;101161.19;10329631;28;20045;-74
2022/07/25 23:03:07;;;;;;;5.93;2.10;;;;;;;16.29;74.36;101158.19;10376351;28;20057;-74